Time;durP1;ratioP1;P1;durP2;ratioP2;P2;SDS_P1;SDS_P2;PMS_P1;PMS_P2;Temp;Humidity;BMP_temperature;BMP_pressure;BME280_temperature;BME280_humidity;BME280_pressure;Samples;Min_cycle;Max_cycle;Signal;HPM_P1;HPM_P2
2021/07/21 00:01:08;;;;;;;;;;;;;;;23.28;59.80;99138.59;5034180;28;1943;-60
2021/07/21 00:03:35;;;;;;;;;;;;;;;23.30;59.99;99136.03;5034211;28;814;-60
2021/07/21 00:06:01;;;;;;;;;;;;;;;23.17;60.22;99135.69;5034137;28;869;-60
2021/07/21 00:08:28;;;;;;;;;;;;;;;22.98;60.60;99133.28;5034154;28;822;-60
2021/07/21 00:13:41;;;;;;;;;;;;;;;22.72;61.56;99139.03;5022841;28;1019;-59
2021/07/21 00:21:12;;;;;;;;;;;;;;;22.69;61.56;99147.72;5042453;28;1901;-59
2021/07/21 00:23:39;;;;;;;;;;;;;;;22.59;62.03;99147.13;5053630;28;949;-59
2021/07/21 00:26:06;;;;;;;;;;;;;;;22.50;62.51;99153.72;5035784;28;1646;-59
2021/07/21 00:28:34;;;;;;;;;;;;;;;22.43;62.64;99151.38;5053640;28;850;-59
2021/07/21 00:31:01;;;;;;;;;;;;;;;22.33;63.11;99147.97;5053565;28;897;-59
2021/07/21 00:33:28;;;;;;;;;;;;;;;22.24;63.63;99153.78;5052835;28;897;-59
2021/07/21 00:35:53;;;;;;;;;;;;;;;22.26;63.66;99156.13;5053484;28;815;-59
2021/07/21 00:38:20;;;;;;;;;;;;;;;22.29;63.59;99163.53;5053423;28;819;-59
2021/07/21 00:40:48;;;;;;;;;;;;;;;22.35;63.27;99164.38;5053371;28;815;-60
2021/07/21 00:43:15;;;;;;;;;;;;;;;22.33;63.31;99158.47;5053293;28;1914;-59
2021/07/21 00:45:41;;;;;;;;;;;;;;;22.36;63.54;99161.06;5035439;28;993;-59
2021/07/21 00:48:09;;;;;;;;;;;;;;;22.41;63.38;99156.75;5053140;28;889;-60
2021/07/21 00:50:35;;;;;;;;;;;;;;;22.48;63.10;99161.91;5053404;28;890;-60
2021/07/21 00:53:02;;;;;;;;;;;;;;;22.52;62.85;99159.63;5053037;28;950;-60
2021/07/21 00:55:29;;;;;;;;;;;;;;;22.47;62.48;99151.13;5053305;28;866;-59
2021/07/21 00:57:57;;;;;;;;;;;;;;;22.47;62.87;99156.75;5053025;28;861;-59
2021/07/21 01:00:23;;;;;;;;;;;;;;;22.47;62.52;99154.75;5053019;28;834;-59
2021/07/21 01:02:50;;;;;;;;;;;;;;;22.55;62.38;99158.66;5052863;28;1894;-59
2021/07/21 01:05:20;;;;;;;;;;;;;;;22.51;62.56;99162.94;5052936;28;810;-59
2021/07/21 01:07:48;;;;;;;;;;;;;;;22.40;62.70;99155.97;5053222;28;807;-59
2021/07/21 01:10:17;;;;;;;;;;;;;;;22.32;62.76;99165.34;5053360;28;866;-59
2021/07/21 01:13:05;;;;;;;;;;;;;;;22.24;63.21;99161.47;5052936;28;1155;-60
2021/07/21 01:15:56;;;;;;;;;;;;;;;22.23;62.90;99174.75;5042034;28;1513;-59
2021/07/21 01:18:42;;;;;;;;;;;;;;;22.36;62.38;99163.09;5052708;28;804;-59
2021/07/21 01:21:27;;;;;;;;;;;;;;;22.39;62.01;99165.69;5052116;28;1894;-59
2021/07/21 01:24:18;;;;;;;;;;;;;;;22.32;62.53;99154.88;5034898;28;1313;-59
2021/07/21 01:27:08;;;;;;;;;;;;;;;22.20;62.59;99159.59;5052560;28;893;-60
2021/07/21 01:29:36;;;;;;;;;;;;;;;22.00;63.32;99162.50;5024171;28;1202;-59
2021/07/21 01:32:04;;;;;;;;;;;;;;;22.05;63.06;99158.19;5052361;28;871;-60
2021/07/21 01:34:32;;;;;;;;;;;;;;;22.13;62.85;99162.09;5052357;28;853;-59
2021/07/21 01:37:00;;;;;;;;;;;;;;;22.13;63.07;99173.38;5052247;28;890;-59
2021/07/21 01:39:31;;;;;;;;;;;;;;;22.11;62.98;99161.84;5052275;28;866;-59
2021/07/21 01:42:03;;;;;;;;;;;;;;;21.98;63.92;99153.78;5052340;28;1886;-59
2021/07/21 01:44:31;;;;;;;;;;;;;;;21.79;64.35;99162.53;5051172;28;950;-59
2021/07/21 01:47:00;;;;;;;;;;;;;;;21.65;65.16;99162.66;5052419;28;873;-60
2021/07/21 01:49:31;;;;;;;;;;;;;;;21.61;64.89;99169.28;5052595;28;818;-59
2021/07/21 01:52:02;;;;;;;;;;;;;;;21.46;65.32;99168.56;5052072;28;802;-59
2021/07/21 01:54:30;;;;;;;;;;;;;;;21.33;65.91;99171.69;5034031;28;1304;-59
2021/07/21 01:56:58;;;;;;;;;;;;;;;21.34;65.92;99180.94;5051917;28;889;-59
2021/07/21 01:59:25;;;;;;;;;;;;;;;21.41;65.58;99170.03;5052015;28;870;-60
2021/07/21 02:01:52;;;;;;;;;;;;;;;21.51;65.37;99176.31;5051786;28;2248;-59
2021/07/21 02:04:20;;;;;;;;;;;;;;;21.50;65.12;99174.75;5051852;28;846;-59
2021/07/21 02:06:48;;;;;;;;;;;;;;;21.49;65.15;99175.25;5051877;28;827;-59
2021/07/21 02:09:15;;;;;;;;;;;;;;;21.47;65.34;99177.78;5051802;28;823;-59
2021/07/21 02:11:41;;;;;;;;;;;;;;;21.48;65.13;99173.69;5051718;28;874;-59
2021/07/21 02:14:10;;;;;;;;;;;;;;;21.49;65.06;99172.44;5052011;28;919;-59
2021/07/21 02:16:38;;;;;;;;;;;;;;;21.43;65.29;99178.00;5051969;28;799;-59
2021/07/21 02:19:06;;;;;;;;;;;;;;;21.31;65.66;99176.28;5051605;28;885;-59
2021/07/21 02:21:36;;;;;;;;;;;;;;;21.22;65.90;99177.19;5051368;28;1930;-60
2021/07/21 02:24:03;;;;;;;;;;;;;;;21.08;66.13;99183.63;5051487;28;963;-59
2021/07/21 02:26:33;;;;;;;;;;;;;;;20.93;66.42;99183.69;5033756;28;914;-60
2021/07/21 02:29:00;;;;;;;;;;;;;;;20.74;66.82;99181.13;5051823;28;873;-60
2021/07/21 02:31:33;;;;;;;;;;;;;;;20.60;67.52;99184.72;5033881;28;1216;-59
2021/07/21 02:34:04;;;;;;;;;;;;;;;20.52;67.50;99192.75;5051504;28;838;-59
2021/07/21 02:36:33;;;;;;;;;;;;;;;20.50;68.05;99197.28;5051432;28;881;-59
2021/07/21 02:39:00;;;;;;;;;;;;;;;20.53;67.95;99191.50;5051560;28;897;-59
2021/07/21 02:41:27;;;;;;;;;;;;;;;20.64;67.55;99204.97;5051297;28;1881;-59
2021/07/21 02:43:54;;;;;;;;;;;;;;;20.69;67.27;99195.06;5033513;28;874;-59
2021/07/21 02:46:20;;;;;;;;;;;;;;;20.65;67.25;99194.50;5051269;28;795;-59
2021/07/21 02:48:47;;;;;;;;;;;;;;;20.71;67.04;99201.75;5051322;28;814;-59
2021/07/21 02:51:15;;;;;;;;;;;;;;;20.72;67.04;99205.34;5051245;28;889;-59
2021/07/21 02:53:45;;;;;;;;;;;;;;;20.69;67.01;99204.25;5051428;28;815;-60
2021/07/21 02:56:14;;;;;;;;;;;;;;;20.66;66.89;99210.09;5052463;28;910;-59
2021/07/21 02:58:46;;;;;;;;;;;;;;;20.60;67.22;99212.81;5055310;28;877;-59
2021/07/21 03:01:13;;;;;;;;;;;;;;;20.51;67.38;99212.91;5055277;28;1885;-59
2021/07/21 03:03:42;;;;;;;;;;;;;;;20.48;67.64;99208.22;5055394;28;807;-59
2021/07/21 03:06:09;;;;;;;;;;;;;;;20.48;67.61;99209.00;5055219;28;862;-59
2021/07/21 03:08:36;;;;;;;;;;;;;;;20.58;67.23;99218.91;5055120;28;881;-59
2021/07/21 03:11:04;;;;;;;;;;;;;;;20.60;67.33;99219.19;5055166;28;842;-59
2021/07/21 03:13:51;;;;;;;;;;;;;;;20.62;66.97;99215.13;5055276;28;915;-60
2021/07/21 03:16:22;;;;;;;;;;;;;;;20.77;66.53;99219.47;5054870;28;1666;-59
2021/07/21 03:18:50;;;;;;;;;;;;;;;20.85;66.26;99221.88;5055018;28;799;-59
2021/07/21 03:21:17;;;;;;;;;;;;;;;20.84;66.03;99218.28;5054469;28;1972;-59
2021/07/21 03:23:45;;;;;;;;;;;;;;;20.89;66.02;99222.44;5054810;28;814;-59
2021/07/21 03:26:12;;;;;;;;;;;;;;;20.91;65.97;99223.50;5054840;28;905;-59
2021/07/21 03:28:38;;;;;;;;;;;;;;;20.91;66.03;99234.75;5054741;28;893;-59
2021/07/21 03:31:05;;;;;;;;;;;;;;;20.81;66.30;99233.31;5054790;28;803;-60
2021/07/21 03:33:33;;;;;;;;;;;;;;;20.71;66.78;99229.06;5054661;28;811;-59
2021/07/21 03:36:08;;;;;;;;;;;;;;;20.68;66.86;99235.66;5054672;28;803;-59
2021/07/21 03:38:36;;;;;;;;;;;;;;;20.73;66.84;99235.72;5054627;28;817;-60
2021/07/21 03:41:02;;;;;;;;;;;;;;;20.84;66.48;99237.94;5054485;28;1956;-59
2021/07/21 03:43:29;;;;;;;;;;;;;;;21.16;65.88;99236.09;5054447;28;928;-59
2021/07/21 03:45:57;;;;;;;;;;;;;;;21.91;63.91;99239.41;5054473;28;838;-60
2021/07/21 03:48:25;;;;;;;;;;;;;;;22.69;61.78;99238.63;5054313;28;922;-60
2021/07/21 03:50:54;;;;;;;;;;;;;;;22.90;61.54;99241.34;5054464;28;885;-59
2021/07/21 03:53:19;;;;;;;;;;;;;;;22.66;62.03;99244.47;5054570;28;921;-60
2021/07/21 03:55:47;;;;;;;;;;;;;;;22.42;62.72;99245.53;5054510;28;806;-60
2021/07/21 03:58:14;;;;;;;;;;;;;;;22.22;63.50;99249.97;5054598;28;822;-59
2021/07/21 04:00:41;;;;;;;;;;;;;;;22.09;63.82;99255.19;5054243;28;823;-59
2021/07/21 04:03:09;;;;;;;;;;;;;;;22.06;63.87;99253.34;5054838;28;1893;-59
2021/07/21 04:05:36;;;;;;;;;;;;;;;22.13;63.90;99249.34;5054551;28;755;-59
2021/07/21 04:08:04;;;;;;;;;;;;;;;22.19;63.50;99248.13;5053271;28;861;-59
2021/07/21 04:10:31;;;;;;;;;;;;;;;22.25;63.24;99256.66;5054142;28;818;-59
2021/07/21 04:13:02;;;;;;;;;;;;;;;22.36;62.80;99244.72;5053922;28;1018;-60
2021/07/21 04:15:28;;;;;;;;;;;;;;;22.46;62.43;99257.34;5053932;28;906;-59
2021/07/21 04:17:56;;;;;;;;;;;;;;;22.53;62.12;99248.47;5054004;28;883;-60
2021/07/21 04:20:24;;;;;;;;;;;;;;;22.66;62.08;99250.09;5053514;28;1329;-59
2021/07/21 04:22:51;;;;;;;;;;;;;;;22.76;62.02;99260.69;5053743;28;1967;-60
2021/07/21 04:25:20;;;;;;;;;;;;;;;22.87;61.37;99248.72;5053681;28;901;-59
2021/07/21 04:27:48;;;;;;;;;;;;;;;23.07;60.97;99253.53;5053705;28;862;-59
2021/07/21 04:30:15;;;;;;;;;;;;;;;23.30;61.05;99250.81;5053539;28;858;-59
2021/07/21 04:32:42;;;;;;;;;;;;;;;23.55;60.10;99249.16;5053646;28;897;-60
2021/07/21 04:35:11;;;;;;;;;;;;;;;23.79;59.57;99249.56;5053853;28;878;-60
2021/07/21 04:37:40;;;;;;;;;;;;;;;24.08;59.12;99255.28;5035649;28;1577;-60
2021/07/21 04:40:10;;;;;;;;;;;;;;;24.18;58.45;99257.38;5053473;28;830;-60
2021/07/21 04:42:37;;;;;;;;;;;;;;;24.09;58.49;99257.59;5053291;28;1898;-59
2021/07/21 04:45:05;;;;;;;;;;;;;;;23.99;59.09;99259.13;5053276;28;827;-59
2021/07/21 04:47:33;;;;;;;;;;;;;;;23.92;59.08;99259.59;5053307;28;839;-59
2021/07/21 04:50:02;;;;;;;;;;;;;;;23.96;59.03;99258.09;5053165;28;969;-60
2021/07/21 04:52:29;;;;;;;;;;;;;;;23.98;58.58;99264.00;5053199;28;902;-60
2021/07/21 04:54:55;;;;;;;;;;;;;;;24.00;58.28;99263.47;5053780;28;834;-59
2021/07/21 04:57:23;;;;;;;;;;;;;;;24.06;58.75;99269.91;5053065;28;811;-59
2021/07/21 04:59:49;;;;;;;;;;;;;;;24.20;58.25;99266.09;5035340;28;1162;-60
2021/07/21 05:02:19;;;;;;;;;;;;;;;24.34;58.28;99269.97;5053280;28;1957;-59
2021/07/21 05:04:45;;;;;;;;;;;;;;;24.50;57.09;99281.84;5053509;28;794;-60
2021/07/21 05:07:14;;;;;;;;;;;;;;;24.60;56.70;99278.25;5035381;28;971;-60
2021/07/21 05:14:52;;;;;;;;;;;;;;;24.93;55.77;99271.06;5328710;22;1531;-59
2021/07/21 05:17:18;;;;;;;;;;;;;;;25.20;54.99;99272.34;5072741;28;829;-60
2021/07/21 05:19:45;;;;;;;;;;;;;;;25.54;54.40;99288.44;5072521;28;885;-59
2021/07/21 05:22:11;;;;;;;;;;;;;;;26.04;52.32;99290.34;5072501;28;1906;-60
2021/07/21 05:24:38;;;;;;;;;;;;;;;26.68;50.19;99287.38;5054190;28;1377;-59
2021/07/21 05:27:06;;;;;;;;;;;;;;;27.14;48.94;99291.38;5072424;28;1088;-60
2021/07/21 05:29:32;;;;;;;;;;;;;;;27.34;48.56;99290.16;5072469;28;845;-60
2021/07/21 05:31:59;;;;;;;;;;;;;;;27.01;48.19;99288.38;5072370;28;806;-61
2021/07/21 05:34:27;;;;;;;;;;;;;;;26.83;49.10;99292.69;5072414;28;814;-60
2021/07/21 05:36:54;;;;;;;;;;;;;;;27.41;48.56;99283.91;5072581;28;838;-60
2021/07/21 05:39:21;;;;;;;;;;;;;;;28.52;45.92;99287.94;5072294;28;834;-59
2021/07/21 05:41:52;;;;;;;;;;;;;;;29.10;44.39;99301.50;5072195;28;1914;-61
2021/07/21 05:44:18;;;;;;;;;;;;;;;29.56;43.50;99301.44;5072050;28;865;-60
2021/07/21 05:46:46;;;;;;;;;;;;;;;30.37;42.04;99299.28;5072178;28;834;-60
2021/07/21 05:49:12;;;;;;;;;;;;;;;31.39;40.37;99306.09;5072117;28;829;-60
2021/07/21 05:51:39;;;;;;;;;;;;;;;31.89;38.54;99307.56;5072202;28;862;-59
2021/07/21 05:54:06;;;;;;;;;;;;;;;32.19;38.58;99305.44;5071991;28;845;-59
2021/07/21 05:56:33;;;;;;;;;;;;;;;31.64;38.13;99315.78;5071955;28;854;-60
2021/07/21 05:58:59;;;;;;;;;;;;;;;31.43;38.84;99312.25;5071808;28;854;-60
2021/07/21 06:01:25;;;;;;;;;;;;;;;30.84;39.61;99306.97;5071911;28;1959;-60
2021/07/21 06:03:52;;;;;;;;;;;;;;;30.86;40.41;99312.88;5072015;28;853;-59
2021/07/21 06:06:19;;;;;;;;;;;;;;;31.33;39.12;99318.44;5071997;28;864;-60
2021/07/21 06:08:46;;;;;;;;;;;;;;;31.24;39.92;99312.44;5071962;28;814;-60
2021/07/21 06:11:11;;;;;;;;;;;;;;;31.30;39.41;99310.22;5071752;28;858;-59
2021/07/21 06:13:38;;;;;;;;;;;;;;;31.53;39.72;99322.59;5071613;28;1216;-59
2021/07/21 06:16:08;;;;;;;;;;;;;;;32.01;38.04;99330.91;5071686;28;905;-60
2021/07/21 06:18:34;;;;;;;;;;;;;;;32.34;38.51;99323.38;5071737;28;834;-59
2021/07/21 06:21:01;;;;;;;;;;;;;;;33.03;36.32;99328.53;5053607;28;1569;-59
2021/07/21 06:23:28;;;;;;;;;;;;;;;33.13;36.20;99323.00;5071620;28;1906;-59
2021/07/21 06:25:55;;;;;;;;;;;;;;;32.36;36.15;99328.56;5071788;28;806;-60
2021/07/21 06:28:21;;;;;;;;;;;;;;;32.07;37.26;99322.94;5071833;28;827;-59
2021/07/21 06:30:48;;;;;;;;;;;;;;;32.71;36.51;99324.09;5071016;28;1027;-60
2021/07/21 06:33:17;;;;;;;;;;;;;;;32.83;36.27;99329.44;5071580;28;885;-59
2021/07/21 06:35:45;;;;;;;;;;;;;;;32.88;35.53;99331.34;5071309;28;925;-60
2021/07/21 06:38:12;;;;;;;;;;;;;;;32.99;36.32;99325.28;5071673;28;795;-59
2021/07/21 06:40:39;;;;;;;;;;;;;;;32.63;35.86;99325.41;5071351;28;894;-59
2021/07/21 06:43:06;;;;;;;;;;;;;;;32.37;37.39;99335.81;5071197;28;1886;-59
2021/07/21 06:45:32;;;;;;;;;;;;;;;32.67;36.15;99320.09;5071421;28;794;-59
2021/07/21 06:47:58;;;;;;;;;;;;;;;32.89;35.19;99325.06;5071425;28;834;-59
2021/07/21 06:50:26;;;;;;;;;;;;;;;32.70;35.50;99327.53;5071372;28;818;-60
2021/07/21 06:52:52;;;;;;;;;;;;;;;32.34;36.40;99317.66;5071210;28;871;-60
2021/07/21 06:55:19;;;;;;;;;;;;;;;32.29;36.78;99332.16;5071262;28;905;-60
2021/07/21 06:57:46;;;;;;;;;;;;;;;32.52;35.89;99317.94;5071239;28;936;-59
2021/07/21 07:00:13;;;;;;;;;;;;;;;32.85;35.12;99321.06;5053257;28;1188;-60
2021/07/21 07:02:40;;;;;;;;;;;;;;;32.68;35.05;99318.75;5053268;28;1890;-60
2021/07/21 07:05:06;;;;;;;;;;;;;;;32.60;35.88;99317.97;5071217;28;1063;-59
2021/07/21 07:07:33;;;;;;;;;;;;;;;33.11;36.03;99323.56;5071303;28;821;-59
2021/07/21 07:10:00;;;;;;;;;;;;;;;33.44;34.16;99320.13;5071230;28;810;-60
2021/07/21 07:12:27;;;;;;;;;;;;;;;32.98;34.23;99320.13;5071023;28;861;-59
2021/07/21 07:14:54;;;;;;;;;;;;;;;32.84;34.45;99320.31;5070711;28;1480;-59
2021/07/21 07:17:20;;;;;;;;;;;;;;;33.04;34.72;99326.41;5071107;28;817;-60
2021/07/21 07:19:47;;;;;;;;;;;;;;;32.84;34.71;99328.09;5053120;28;856;-60
2021/07/21 07:22:13;;;;;;;;;;;;;;;32.67;35.02;99329.44;5071037;28;1918;-60
2021/07/21 07:24:40;;;;;;;;;;;;;;;32.70;34.61;99334.00;5071134;28;868;-59
2021/07/21 07:27:07;;;;;;;;;;;;;;;33.24;35.16;99330.44;5071031;28;822;-59
2021/07/21 07:29:34;;;;;;;;;;;;;;;34.09;33.86;99333.91;5070970;28;852;-59
2021/07/21 07:32:00;;;;;;;;;;;;;;;33.87;33.12;99333.44;5070946;28;830;-59
2021/07/21 07:34:27;;;;;;;;;;;;;;;33.15;34.21;99338.25;5071066;28;868;-60
2021/07/21 07:36:53;;;;;;;;;;;;;;;32.53;35.20;99334.53;5070917;28;823;-59
2021/07/21 07:39:21;;;;;;;;;;;;;;;32.40;35.18;99342.50;5070962;28;881;-60
2021/07/21 07:41:48;;;;;;;;;;;;;;;32.60;35.37;99337.97;5071042;28;1890;-59
2021/07/21 07:44:15;;;;;;;;;;;;;;;32.07;35.40;99339.28;5074493;28;826;-60
2021/07/21 07:46:41;;;;;;;;;;;;;;;32.20;35.54;99342.03;5074443;28;877;-60
2021/07/21 07:49:09;;;;;;;;;;;;;;;32.74;35.44;99334.38;5074399;28;802;-60
2021/07/21 07:51:36;;;;;;;;;;;;;;;33.38;34.61;99334.63;5056363;28;747;-60
2021/07/21 07:54:03;;;;;;;;;;;;;;;33.46;34.04;99331.78;5074221;28;854;-60
2021/07/21 07:56:31;;;;;;;;;;;;;;;33.17;33.32;99334.09;5074345;28;811;-60
2021/07/21 07:58:59;;;;;;;;;;;;;;;32.69;34.74;99332.50;5074224;28;809;-60
2021/07/21 08:01:26;;;;;;;;;;;;;;;32.61;35.09;99334.56;5074157;28;1951;-60
2021/07/21 08:03:53;;;;;;;;;;;;;;;32.50;34.85;99332.03;5074152;28;822;-60
2021/07/21 08:06:19;;;;;;;;;;;;;;;32.68;34.87;99322.38;5073957;28;937;-60
2021/07/21 08:08:45;;;;;;;;;;;;;;;32.86;34.30;99326.22;5074113;28;822;-61
2021/07/21 08:11:12;;;;;;;;;;;;;;;33.15;34.14;99329.69;5073834;28;888;-60
2021/07/21 08:13:40;;;;;;;;;;;;;;;32.86;34.56;99325.44;5072748;28;1927;-60
2021/07/21 08:16:07;;;;;;;;;;;;;;;33.28;34.38;99322.22;5034022;28;802;-59
2021/07/21 08:18:34;;;;;;;;;;;;;;;33.63;33.49;99319.72;5033934;28;854;-60
2021/07/21 08:21:00;;;;;;;;;;;;;;;33.51;34.02;99320.09;5034008;28;802;-60
2021/07/21 08:23:27;;;;;;;;;;;;;;;33.23;33.23;99318.22;5033847;28;1981;-60
2021/07/21 08:25:53;;;;;;;;;;;;;;;33.50;33.51;99321.47;5033832;28;897;-60
2021/07/21 08:28:21;;;;;;;;;;;;;;;33.48;33.73;99314.75;5033690;28;933;-59
2021/07/21 08:30:47;;;;;;;;;;;;;;;33.76;32.45;99314.53;5033853;28;835;-60
2021/07/21 08:33:14;;;;;;;;;;;;;;;33.15;32.39;99321.09;5033677;28;870;-60
2021/07/21 08:35:41;;;;;;;;;;;;;;;32.60;33.51;99313.00;5033677;28;901;-59
2021/07/21 08:38:08;;;;;;;;;;;;;;;33.25;34.23;99312.69;5033685;28;881;-59
2021/07/21 08:40:36;;;;;;;;;;;;;;;34.31;31.61;99326.56;5033542;28;838;-60
2021/07/21 08:43:04;;;;;;;;;;;;;;;34.51;30.78;99322.66;5033417;28;2011;-59
2021/07/21 08:45:31;;;;;;;;;;;;;;;34.63;30.54;99330.81;5033439;28;938;-59
2021/07/21 08:47:57;;;;;;;;;;;;;;;33.58;30.97;99323.53;5033388;28;909;-59
2021/07/21 08:50:24;;;;;;;;;;;;;;;32.93;30.94;99325.44;5033401;28;838;-59
2021/07/21 08:52:53;;;;;;;;;;;;;;;32.93;32.91;99324.69;5033624;28;867;-60
2021/07/21 08:55:22;;;;;;;;;;;;;;;33.15;32.78;99337.50;5032795;28;881;-59
2021/07/21 08:57:49;;;;;;;;;;;;;;;33.25;33.03;99324.16;5033199;28;842;-59
2021/07/21 09:00:16;;;;;;;;;;;;;;;34.22;32.82;99327.97;5033225;28;829;-59
2021/07/21 09:02:44;;;;;;;;;;;;;;;34.27;30.93;99321.25;5031818;28;1890;-60
2021/07/21 09:05:12;;;;;;;;;;;;;;;34.32;31.91;99322.38;5032973;28;865;-59
2021/07/21 09:07:40;;;;;;;;;;;;;;;34.29;30.70;99332.91;5015417;28;878;-59
2021/07/21 09:10:08;;;;;;;;;;;;;;;33.39;31.76;99330.44;5032841;28;1072;-59
2021/07/21 09:12:36;;;;;;;;;;;;;;;32.95;33.18;99330.63;5033163;28;1165;-60
2021/07/21 09:15:03;;;;;;;;;;;;;;;32.74;33.67;99320.09;5055477;28;1168;-59
2021/07/21 09:17:31;;;;;;;;;;;;;;;32.98;33.46;99320.88;5072676;28;811;-59
2021/07/21 09:19:57;;;;;;;;;;;;;;;33.18;34.18;99324.94;5072947;28;818;-59
2021/07/21 09:22:28;;;;;;;;;;;;;;;33.70;33.12;99324.69;5072523;28;1922;-59
2021/07/21 09:25:14;;;;;;;;;;;;;;;33.61;32.82;99331.78;5072507;28;941;-59
2021/07/21 09:27:42;;;;;;;;;;;;;;;33.36;32.40;99326.63;5072439;28;846;-59
2021/07/21 09:30:09;;;;;;;;;;;;;;;33.16;33.07;99333.31;5072475;28;810;-59
2021/07/21 09:32:52;;;;;;;;;;;;;;;33.27;32.94;99320.72;5072457;28;822;-59
2021/07/21 09:35:19;;;;;;;;;;;;;;;33.04;32.81;99324.31;5072278;28;878;-59
2021/07/21 09:37:47;;;;;;;;;;;;;;;31.88;35.01;99328.91;5072391;28;849;-60
2021/07/21 09:40:14;;;;;;;;;;;;;;;31.72;34.60;99328.03;5072166;28;885;-59
2021/07/21 09:42:40;;;;;;;;;;;;;;;31.70;34.23;99332.78;5072080;28;1893;-59
2021/07/21 09:45:10;;;;;;;;;;;;;;;31.85;35.15;99335.72;5072131;28;870;-59
2021/07/21 09:47:41;;;;;;;;;;;;;;;31.87;33.96;99327.34;5072128;28;877;-60
2021/07/21 09:50:14;;;;;;;;;;;;;;;31.82;34.75;99331.16;5072398;28;916;-59
2021/07/21 09:52:57;;;;;;;;;;;;;;;32.12;34.76;99335.53;5072044;28;838;-59
2021/07/21 09:55:24;;;;;;;;;;;;;;;32.33;35.03;99323.97;5072576;28;818;-60
2021/07/21 09:57:58;;;;;;;;;;;;;;;32.43;33.85;99324.19;5072131;28;810;-60
2021/07/21 10:00:26;;;;;;;;;;;;;;;31.91;34.36;99332.72;5071933;28;818;-60
2021/07/21 10:03:13;;;;;;;;;;;;;;;31.52;35.34;99321.06;5070522;28;1897;-60
2021/07/21 10:05:59;;;;;;;;;;;;;;;31.47;35.36;99324.84;5070882;28;1857;-59
2021/07/21 10:08:44;;;;;;;;;;;;;;;31.18;34.88;99329.75;5071657;28;874;-59
2021/07/21 10:11:27;;;;;;;;;;;;;;;30.79;35.05;99322.13;5071663;28;953;-60
2021/07/21 10:14:14;;;;;;;;;;;;;;;30.62;35.71;99326.16;5071544;28;1164;-61
2021/07/21 10:16:42;;;;;;;;;;;;;;;31.01;36.78;99320.84;5071601;28;1195;-60
2021/07/21 10:19:11;;;;;;;;;;;;;;;31.21;35.91;99325.00;5071633;28;858;-60
2021/07/21 10:21:39;;;;;;;;;;;;;;;31.17;35.31;99321.72;5072233;28;1968;-60
2021/07/21 10:24:06;;;;;;;;;;;;;;;31.30;35.04;99319.56;5071792;28;874;-60
2021/07/21 10:26:33;;;;;;;;;;;;;;;30.92;34.69;99327.81;5072411;28;808;-60
2021/07/21 10:29:00;;;;;;;;;;;;;;;30.69;35.23;99319.75;5071880;28;885;-60
2021/07/21 10:31:27;;;;;;;;;;;;;;;30.61;35.69;99321.00;5053845;28;1274;-60
2021/07/21 10:33:53;;;;;;;;;;;;;;;30.61;35.87;99318.91;5071582;28;933;-60
2021/07/21 10:36:20;;;;;;;;;;;;;;;30.95;36.35;99323.84;5072235;28;934;-61
2021/07/21 10:38:48;;;;;;;;;;;;;;;31.12;35.28;99318.47;5071973;28;863;-60
2021/07/21 10:41:15;;;;;;;;;;;;;;;31.13;34.42;99313.50;5071809;28;874;-60
2021/07/21 10:43:48;;;;;;;;;;;;;;;30.74;35.16;99318.84;5071892;28;1866;-60
2021/07/21 10:46:32;;;;;;;;;;;;;;;30.78;36.33;99309.19;5071450;28;866;-59
2021/07/21 10:49:14;;;;;;;;;;;;;;;31.24;35.69;99283.91;5071540;28;854;-59
2021/07/21 10:55:01;;;;;;;;;;;;;;;31.74;34.50;99304.63;4989964;28;1319;-60
2021/07/21 11:00:22;;;;;;;;;;;;;;;31.04;34.15;99311.16;5047594;28;960;-60
2021/07/21 11:02:50;;;;;;;;;;;;;;;31.24;34.13;99301.81;5071147;28;1949;-61
2021/07/21 11:05:31;;;;;;;;;;;;;;;31.42;34.57;99291.47;5071151;28;861;-59
2021/07/21 11:07:58;;;;;;;;;;;;;;;31.65;33.23;99293.75;5071178;28;1055;-60
2021/07/21 11:10:41;;;;;;;;;;;;;;;31.74;31.95;99298.91;5071052;28;925;-60
2021/07/21 11:13:12;;;;;;;;;;;;;;;31.61;29.79;99294.09;5071228;28;927;-61
2021/07/21 11:15:43;;;;;;;;;;;;;;;31.45;29.76;99293.25;5070894;28;1266;-61
2021/07/21 11:18:24;;;;;;;;;;;;;;;31.33;29.99;99291.97;5073597;28;878;-60
2021/07/21 11:21:10;;;;;;;;;;;;;;;31.24;30.79;99290.41;5075063;28;861;-60
2021/07/21 11:23:53;;;;;;;;;;;;;;;31.75;31.56;99283.31;5075017;28;1894;-60
2021/07/21 11:26:31;;;;;;;;;;;;;;;32.09;30.21;99288.03;5075076;28;799;-60
2021/07/21 11:28:59;;;;;;;;;;;;;;;32.10;29.89;99278.16;5074888;28;826;-60
2021/07/21 11:31:43;;;;;;;;;;;;;;;32.04;31.03;99272.59;5074621;28;969;-60
2021/07/21 11:34:12;;;;;;;;;;;;;;;32.02;30.88;99278.13;5074754;28;837;-60
2021/07/21 11:36:43;;;;;;;;;;;;;;;31.97;30.41;99281.13;5074623;28;873;-60
2021/07/21 11:39:30;;;;;;;;;;;;;;;31.97;31.10;99284.75;5074644;28;838;-61
2021/07/21 11:42:03;;;;;;;;;;;;;;;32.19;29.54;99279.72;5074393;28;1890;-60
2021/07/21 11:44:33;;;;;;;;;;;;;;;31.94;28.55;99283.00;5074506;28;910;-60
2021/07/21 11:47:00;;;;;;;;;;;;;;;31.90;29.54;99282.59;5074833;28;842;-62
2021/07/21 11:49:28;;;;;;;;;;;;;;;32.08;29.25;99280.81;5074418;28;799;-60
2021/07/21 11:51:58;;;;;;;;;;;;;;;32.15;29.11;99274.34;5074346;28;838;-60
2021/07/21 11:54:28;;;;;;;;;;;;;;;32.26;30.09;99271.16;5074499;28;869;-60
2021/07/21 11:56:58;;;;;;;;;;;;;;;32.28;29.95;99271.34;5074438;28;818;-60
2021/07/21 11:59:31;;;;;;;;;;;;;;;32.44;30.76;99274.25;5074196;28;902;-60
2021/07/21 12:02:08;;;;;;;;;;;;;;;32.57;29.44;99276.97;5074071;28;1882;-61
2021/07/21 12:04:34;;;;;;;;;;;;;;;32.57;28.38;99284.78;5074064;28;906;-61
2021/07/21 12:07:00;;;;;;;;;;;;;;;32.31;27.76;99284.50;5074154;28;850;-60
2021/07/21 12:09:28;;;;;;;;;;;;;;;32.25;27.50;99278.19;5074534;28;803;-62
2021/07/21 12:11:55;;;;;;;;;;;;;;;32.63;27.82;99282.50;5074221;28;877;-61
2021/07/21 12:14:23;;;;;;;;;;;;;;;32.67;27.21;99286.53;5073943;28;1364;-61
2021/07/21 12:16:51;;;;;;;;;;;;;;;32.63;27.64;99276.78;5074200;28;947;-60
2021/07/21 12:19:23;;;;;;;;;;;;;;;32.81;28.22;99286.34;5074074;28;847;-61
2021/07/21 12:21:58;;;;;;;;;;;;;;;32.95;28.13;99276.25;5073899;28;2005;-61
2021/07/21 12:24:33;;;;;;;;;;;;;;;33.29;28.57;99281.59;5073980;28;830;-61
2021/07/21 12:26:59;;;;;;;;;;;;;;;33.45;28.18;99276.56;5073717;28;857;-61
2021/07/21 12:29:28;;;;;;;;;;;;;;;33.73;27.43;99277.69;5072759;28;941;-61
2021/07/21 12:32:04;;;;;;;;;;;;;;;33.49;27.28;99282.69;5073677;28;826;-61
2021/07/21 12:34:31;;;;;;;;;;;;;;;33.11;27.12;99285.59;5073591;28;885;-61
2021/07/21 12:36:57;;;;;;;;;;;;;;;33.13;27.39;99285.78;5073351;28;919;-60
2021/07/21 12:39:25;;;;;;;;;;;;;;;32.98;26.93;99283.66;5073642;28;814;-61
2021/07/21 12:41:52;;;;;;;;;;;;;;;32.88;27.35;99280.63;5073455;28;1893;-61
2021/07/21 12:44:22;;;;;;;;;;;;;;;33.13;27.33;99269.38;5073782;28;809;-61
2021/07/21 12:47:07;;;;;;;;;;;;;;;33.26;27.05;99273.38;5073437;28;942;-62
2021/07/21 12:49:35;;;;;;;;;;;;;;;33.47;26.70;99271.03;5073248;28;890;-61
2021/07/21 12:52:03;;;;;;;;;;;;;;;33.21;26.73;99277.19;5055512;28;834;-61
2021/07/21 12:54:30;;;;;;;;;;;;;;;33.02;26.58;99261.16;5073167;28;837;-60
2021/07/21 12:56:56;;;;;;;;;;;;;;;33.06;26.53;99264.38;5073227;28;798;-60
2021/07/21 12:59:33;;;;;;;;;;;;;;;33.04;26.99;99267.06;5073406;28;842;-61
2021/07/21 13:02:08;;;;;;;;;;;;;;;33.32;27.04;99262.47;5073104;28;1917;-60
2021/07/21 13:04:35;;;;;;;;;;;;;;;33.73;26.09;99260.47;5072909;28;886;-61
2021/07/21 13:07:06;;;;;;;;;;;;;;;33.78;26.08;99268.13;5072748;28;858;-61
2021/07/21 13:09:35;;;;;;;;;;;;;;;33.48;26.71;99263.97;5072854;28;934;-61
2021/07/21 13:12:13;;;;;;;;;;;;;;;33.38;26.31;99263.03;5072751;28;893;-61
2021/07/21 13:14:40;;;;;;;;;;;;;;;33.29;26.09;99260.78;5072857;28;1213;-61
2021/07/21 13:17:11;;;;;;;;;;;;;;;33.28;26.49;99265.72;5072809;28;806;-61
2021/07/21 13:19:39;;;;;;;;;;;;;;;33.41;27.15;99273.34;5072701;28;854;-62
2021/07/21 13:22:19;;;;;;;;;;;;;;;33.14;26.62;99268.03;5072579;28;1918;-61
2021/07/21 13:24:45;;;;;;;;;;;;;;;33.03;27.20;99262.69;5054833;28;850;-61
2021/07/21 13:27:13;;;;;;;;;;;;;;;33.35;27.19;99261.31;5072619;28;870;-61
2021/07/21 13:29:42;;;;;;;;;;;;;;;33.00;26.72;99266.69;5072544;28;826;-63
2021/07/21 13:32:19;;;;;;;;;;;;;;;32.96;27.58;99255.59;5072423;28;992;-63
2021/07/21 13:34:45;;;;;;;;;;;;;;;32.90;27.28;99269.38;5054401;28;917;-62